createdAt,value
2018-07-20T00:00:23.527Z,0
2018-07-20T00:00:49.667Z,0
2018-07-20T00:01:15.814Z,0
2018-07-20T00:01:41.974Z,0
2018-07-20T00:02:08.113Z,0
2018-07-20T00:02:34.246Z,0
2018-07-20T00:03:00.392Z,0
2018-07-20T00:03:26.526Z,0
2018-07-20T00:03:52.665Z,0
2018-07-20T00:04:18.805Z,0
2018-07-20T00:04:44.943Z,0
2018-07-20T00:05:11.081Z,0
2018-07-20T00:05:37.216Z,0
2018-07-20T00:06:03.358Z,0
2018-07-20T00:06:29.519Z,0
2018-07-20T00:06:55.703Z,0
2018-07-20T00:07:21.835Z,0
2018-07-20T00:07:47.981Z,0
2018-07-20T00:08:14.121Z,0
2018-07-20T00:08:40.259Z,0
2018-07-20T00:09:06.400Z,0
2018-07-20T00:09:32.547Z,0
2018-07-20T00:09:58.680Z,0
2018-07-20T00:10:24.840Z,0
2018-07-20T00:10:50.978Z,0
2018-07-20T00:11:17.116Z,0
2018-07-20T00:11:43.254Z,0
2018-07-20T00:12:09.442Z,0
2018-07-20T00:12:35.580Z,0
2018-07-20T00:13:01.732Z,0
2018-07-20T00:13:27.881Z,0
2018-07-20T00:13:54.025Z,0
2018-07-20T00:14:20.165Z,0
2018-07-20T00:14:46.304Z,0
2018-07-20T00:15:12.443Z,0
2018-07-20T00:15:38.585Z,0
2018-07-20T00:16:04.721Z,0
2018-07-20T00:16:30.859Z,0
2018-07-20T00:16:57.001Z,0
2018-07-20T00:17:23.136Z,0
2018-07-20T00:17:49.276Z,0
2018-07-20T00:18:15.415Z,0
2018-07-20T00:18:41.551Z,0
2018-07-20T00:20:49.673Z,0
2018-07-20T00:21:15.834Z,0
2018-07-20T00:21:41.975Z,0
2018-07-20T00:22:08.142Z,0
2018-07-20T00:22:34.251Z,0
2018-07-20T00:23:00.416Z,0
2018-07-20T00:23:26.563Z,0
2018-07-20T00:23:52.701Z,0
2018-07-20T00:24:18.859Z,0
2018-07-20T00:24:44.998Z,0
2018-07-20T00:25:11.143Z,0
2018-07-20T00:25:37.286Z,0
2018-07-20T00:26:03.452Z,0
2018-07-20T00:26:29.590Z,0
2018-07-20T00:26:55.729Z,0
2018-07-20T00:27:21.868Z,0
2018-07-20T00:27:48.009Z,0
2018-07-20T00:28:14.146Z,0
2018-07-20T00:28:40.279Z,0
2018-07-20T00:29:06.444Z,0
2018-07-20T00:29:32.605Z,0
2018-07-20T00:29:58.773Z,0
2018-07-20T00:30:24.946Z,0
2018-07-20T00:30:51.047Z,0
2018-07-20T00:31:17.204Z,0
2018-07-20T00:31:43.343Z,0
2018-07-20T00:32:09.480Z,0
2018-07-20T00:32:35.648Z,0
2018-07-20T00:33:01.786Z,0
2018-07-20T00:33:27.937Z,0
2018-07-20T00:33:54.097Z,0
2018-07-20T00:34:20.237Z,0
2018-07-20T00:34:46.371Z,0
2018-07-20T00:35:12.537Z,0
2018-07-20T00:35:38.682Z,0
2018-07-20T00:36:04.822Z,0
2018-07-20T00:36:30.973Z,0
2018-07-20T00:36:57.122Z,0
2018-07-20T00:37:23.272Z,0
2018-07-20T00:37:49.403Z,0
2018-07-20T00:38:15.567Z,0
2018-07-20T00:38:41.704Z,0
2018-07-20T00:39:07.847Z,0
2018-07-20T00:39:33.979Z,0
2018-07-20T00:40:00.120Z,0
2018-07-20T00:40:26.253Z,0
2018-07-20T00:40:52.401Z,0
2018-07-20T00:41:18.587Z,0
2018-07-20T00:41:44.728Z,0
2018-07-20T00:42:10.862Z,0
2018-07-20T00:42:37.000Z,0
2018-07-20T00:43:03.169Z,0
2018-07-20T00:43:29.336Z,0
2018-07-20T00:43:55.522Z,0
2018-07-20T00:44:21.676Z,0
2018-07-20T00:44:47.814Z,0
2018-07-20T00:45:13.947Z,0
2018-07-20T00:45:40.080Z,0
2018-07-20T00:46:06.248Z,0
2018-07-20T00:46:32.384Z,0
2018-07-20T00:46:58.544Z,0
2018-07-20T00:47:24.681Z,0
2018-07-20T00:47:50.823Z,0
2018-07-20T00:48:16.961Z,0
2018-07-20T00:48:43.130Z,0
2018-07-20T00:49:09.268Z,0
2018-07-20T00:49:35.430Z,0
2018-07-20T00:50:01.576Z,0
2018-07-20T00:50:28.338Z,0
2018-07-20T00:50:54.480Z,0
2018-07-20T00:51:20.621Z,0
2018-07-20T00:51:46.766Z,0
2018-07-20T00:52:12.925Z,0
2018-07-20T00:52:39.065Z,0
2018-07-20T00:53:05.224Z,0
2018-07-20T00:53:31.391Z,0
2018-07-20T00:53:57.526Z,0
2018-07-20T00:54:23.668Z,0
2018-07-20T00:54:49.809Z,0
2018-07-20T00:55:15.947Z,0
2018-07-20T00:55:42.080Z,0
2018-07-20T00:56:08.217Z,0
2018-07-20T00:56:34.355Z,0
2018-07-20T00:57:00.493Z,0
2018-07-20T00:57:26.630Z,0
2018-07-20T00:57:52.770Z,0
2018-07-20T00:58:18.923Z,0
2018-07-20T00:58:45.059Z,0
2018-07-20T00:59:11.223Z,0
2018-07-20T00:59:37.384Z,0
2018-07-20T01:00:03.531Z,0
2018-07-20T01:00:29.675Z,0
2018-07-20T01:00:55.831Z,0
2018-07-20T01:01:21.965Z,0
2018-07-20T01:01:48.110Z,0
2018-07-20T01:02:14.248Z,0
2018-07-20T01:02:40.385Z,0
2018-07-20T01:03:06.530Z,0
2018-07-20T01:03:32.675Z,0
2018-07-20T01:03:58.826Z,0
2018-07-20T01:04:24.968Z,0
2018-07-20T01:04:51.129Z,0
2018-07-20T01:05:17.266Z,0
2018-07-20T01:05:43.408Z,0
2018-07-20T01:06:09.546Z,0
2018-07-20T01:06:35.683Z,0
2018-07-20T01:07:01.844Z,0
2018-07-20T01:07:27.981Z,0
2018-07-20T01:07:54.116Z,0
2018-07-20T01:08:20.261Z,0
2018-07-20T01:08:46.424Z,0
2018-07-20T01:09:12.588Z,0
2018-07-20T01:09:38.725Z,0
2018-07-20T01:10:04.858Z,0
2018-07-20T01:10:30.996Z,0
2018-07-20T01:10:57.156Z,0
2018-07-20T01:11:23.293Z,0
2018-07-20T01:11:49.437Z,0
2018-07-20T01:12:15.579Z,0
2018-07-20T01:12:41.717Z,0
2018-07-20T01:13:07.855Z,0
2018-07-20T01:13:33.993Z,0
2018-07-20T01:14:00.138Z,0
2018-07-20T01:14:26.277Z,0
2018-07-20T01:14:52.423Z,0
2018-07-20T01:15:18.557Z,0
2018-07-20T01:15:44.695Z,0
2018-07-20T01:16:10.829Z,0
2018-07-20T01:16:36.970Z,0
2018-07-20T01:17:03.131Z,0
2018-07-20T01:17:29.286Z,0
2018-07-20T01:17:55.423Z,0
2018-07-20T01:18:21.558Z,0
2018-07-20T01:18:47.697Z,0
2018-07-20T01:19:13.850Z,0
2018-07-20T01:19:39.992Z,0
2018-07-20T01:20:06.160Z,0
2018-07-20T01:20:32.318Z,0
2018-07-20T01:20:58.479Z,0
2018-07-20T01:21:24.626Z,0
2018-07-20T01:21:50.767Z,0
2018-07-20T01:22:16.905Z,0
2018-07-20T01:22:43.075Z,0
2018-07-20T01:23:09.204Z,0
2018-07-20T01:23:35.349Z,0
2018-07-20T01:24:01.486Z,0
2018-07-20T01:24:27.655Z,0
2018-07-20T01:24:53.837Z,0
2018-07-20T01:25:19.978Z,0
2018-07-20T01:25:46.112Z,0
2018-07-20T01:26:12.247Z,0
2018-07-20T01:26:38.387Z,0
2018-07-20T01:27:04.576Z,0
2018-07-20T01:27:30.719Z,0
2018-07-20T01:27:56.858Z,0
2018-07-20T01:28:23.008Z,0
2018-07-20T01:28:49.134Z,0
2018-07-20T01:29:15.276Z,0
2018-07-20T01:29:41.420Z,0
2018-07-20T01:30:07.552Z,0
2018-07-20T01:30:33.691Z,0
2018-07-20T01:30:59.827Z,0
2018-07-20T01:31:25.969Z,0
2018-07-20T01:31:52.103Z,0
2018-07-20T01:32:18.240Z,0
2018-07-20T01:32:44.380Z,0
2018-07-20T01:33:10.519Z,0
2018-07-20T01:33:36.656Z,0
2018-07-20T01:34:02.793Z,0
2018-07-20T01:34:28.958Z,0
2018-07-20T01:34:55.092Z,0
2018-07-20T01:35:21.238Z,0
2018-07-20T01:35:47.430Z,0
2018-07-20T01:36:13.565Z,0
2018-07-20T01:36:39.697Z,0
2018-07-20T01:37:05.839Z,0
2018-07-20T01:37:32.006Z,0
2018-07-20T01:37:58.140Z,0
2018-07-20T01:38:24.273Z,0
2018-07-20T01:38:50.414Z,0
2018-07-20T01:39:16.551Z,0
2018-07-20T01:39:42.689Z,0
2018-07-20T01:40:08.822Z,0
2018-07-20T01:40:34.969Z,0
2018-07-20T01:41:01.121Z,0
2018-07-20T01:41:27.263Z,0
2018-07-20T01:41:53.421Z,0
2018-07-20T01:42:19.565Z,0
2018-07-20T01:42:45.721Z,0
2018-07-20T01:43:11.888Z,0
2018-07-20T01:43:38.025Z,0
2018-07-20T01:44:04.173Z,0
2018-07-20T01:44:30.378Z,0
2018-07-20T01:44:56.544Z,0
2018-07-20T01:45:22.710Z,0
2018-07-20T01:45:48.846Z,0
2018-07-20T01:46:14.986Z,0
2018-07-20T01:46:41.138Z,0
2018-07-20T01:47:07.277Z,0
2018-07-20T01:47:33.415Z,0
2018-07-20T01:47:59.557Z,0
2018-07-20T01:48:25.720Z,0
2018-07-20T01:48:51.859Z,0
2018-07-20T01:49:18.020Z,0
2018-07-20T01:49:44.203Z,0
2018-07-20T01:50:10.343Z,0
2018-07-20T01:50:36.486Z,0
2018-07-20T01:51:02.626Z,0
2018-07-20T01:51:28.767Z,0
2018-07-20T01:51:54.906Z,0
2018-07-20T01:52:21.036Z,0
2018-07-20T01:52:47.177Z,0
2018-07-20T01:53:13.323Z,0
2018-07-20T01:53:39.452Z,0
2018-07-20T01:54:05.587Z,0
2018-07-20T01:54:31.728Z,0
2018-07-20T01:54:57.870Z,0
2018-07-20T01:55:24.010Z,0
2018-07-20T01:55:50.143Z,0
2018-07-20T01:56:16.292Z,0
2018-07-20T01:56:42.432Z,0
2018-07-20T01:57:08.580Z,0
2018-07-20T01:57:34.762Z,0
2018-07-20T01:58:00.850Z,0
2018-07-20T01:58:26.995Z,0
2018-07-20T01:58:53.129Z,0
2018-07-20T01:59:19.264Z,0
2018-07-20T01:59:45.406Z,0
2018-07-20T02:00:11.544Z,0
2018-07-20T02:00:37.702Z,0
2018-07-20T02:01:03.841Z,0
2018-07-20T02:01:29.978Z,0
2018-07-20T02:01:56.121Z,0
2018-07-20T02:02:22.253Z,0
2018-07-20T02:02:48.402Z,0
2018-07-20T02:03:14.537Z,0
2018-07-20T02:03:40.673Z,0
2018-07-20T02:04:06.809Z,0
2018-07-20T02:04:32.953Z,0
2018-07-20T02:04:59.090Z,0
2018-07-20T02:05:25.256Z,0
2018-07-20T02:05:51.389Z,0
2018-07-20T02:06:17.524Z,0
2018-07-20T02:06:43.696Z,0
2018-07-20T02:07:09.892Z,0
2018-07-20T02:07:36.029Z,0
2018-07-20T02:08:02.166Z,0
2018-07-20T02:08:28.302Z,0
2018-07-20T02:08:54.440Z,0
2018-07-20T02:09:20.581Z,0
2018-07-20T02:09:46.718Z,0
2018-07-20T02:10:12.851Z,0
2018-07-20T02:10:39.012Z,0
2018-07-20T02:11:05.204Z,0
2018-07-20T02:11:31.366Z,0
2018-07-20T02:11:57.548Z,0
2018-07-20T02:12:23.683Z,0
2018-07-20T02:12:49.819Z,0
2018-07-20T02:13:15.951Z,0
2018-07-20T02:13:42.099Z,0
2018-07-20T02:14:08.234Z,0
2018-07-20T02:14:34.369Z,0
2018-07-20T02:15:00.533Z,0
2018-07-20T02:15:26.671Z,0
2018-07-20T02:15:52.812Z,0
2018-07-20T02:16:18.975Z,0
2018-07-20T02:16:45.113Z,0
2018-07-20T02:17:11.258Z,0
2018-07-20T02:17:37.384Z,0
2018-07-20T02:18:03.529Z,0
2018-07-20T02:18:29.666Z,0
2018-07-20T02:18:55.798Z,0
2018-07-20T02:19:21.932Z,0
2018-07-20T02:19:48.072Z,0
2018-07-20T02:20:14.210Z,0
2018-07-20T02:20:40.347Z,0
2018-07-20T02:21:06.491Z,0
2018-07-20T02:21:32.630Z,0
2018-07-20T02:21:58.755Z,0
2018-07-20T02:22:24.897Z,0
2018-07-20T02:22:51.041Z,0
2018-07-20T02:23:17.176Z,0
2018-07-20T02:23:43.316Z,0
2018-07-20T02:24:09.443Z,0
2018-07-20T02:24:35.613Z,0
2018-07-20T02:25:01.750Z,0
2018-07-20T02:25:27.882Z,0
2018-07-20T02:25:54.021Z,0
2018-07-20T02:26:20.163Z,0
2018-07-20T02:26:46.296Z,0
2018-07-20T02:27:12.432Z,0
2018-07-20T02:27:38.603Z,0
2018-07-20T02:28:04.738Z,0
2018-07-20T02:28:30.882Z,0
2018-07-20T02:28:57.015Z,0
2018-07-20T02:29:23.206Z,0
2018-07-20T02:29:49.312Z,0
2018-07-20T02:30:15.450Z,0
2018-07-20T02:30:41.582Z,0
2018-07-20T02:31:07.778Z,0
2018-07-20T02:31:33.940Z,0
2018-07-20T02:32:00.106Z,0
2018-07-20T02:32:26.293Z,0
2018-07-20T02:32:52.427Z,0
2018-07-20T02:33:18.564Z,0
2018-07-20T02:33:44.751Z,0
2018-07-20T02:34:10.945Z,0
2018-07-20T02:34:37.082Z,0
2018-07-20T02:35:03.243Z,0
2018-07-20T02:35:29.383Z,0
2018-07-20T02:35:55.552Z,0
2018-07-20T02:36:21.693Z,0
2018-07-20T02:36:47.887Z,0
2018-07-20T02:37:14.033Z,0
2018-07-20T02:37:40.186Z,0
2018-07-20T02:38:06.360Z,0
2018-07-20T02:38:32.548Z,0
2018-07-20T02:38:58.725Z,0
2018-07-20T02:39:24.856Z,0
2018-07-20T02:39:50.994Z,0
2018-07-20T02:40:17.198Z,0
2018-07-20T02:40:43.338Z,0
2018-07-20T02:41:09.506Z,0
2018-07-20T02:41:35.645Z,0
2018-07-20T02:42:01.778Z,0
2018-07-20T02:42:27.918Z,0
2018-07-20T02:42:54.077Z,0
2018-07-20T02:43:20.238Z,0
2018-07-20T02:43:46.384Z,0
2018-07-20T02:44:12.570Z,0
2018-07-20T02:44:38.734Z,0
2018-07-20T02:45:04.877Z,0
2018-07-20T02:45:31.083Z,0
2018-07-20T02:45:57.222Z,0
2018-07-20T02:46:23.411Z,0
2018-07-20T02:46:49.548Z,0
2018-07-20T02:47:15.704Z,0
2018-07-20T02:47:41.866Z,0
2018-07-20T02:48:08.008Z,0
2018-07-20T02:48:34.158Z,0
2018-07-20T02:49:00.308Z,4
2018-07-20T02:49:26.496Z,4
2018-07-20T02:49:52.667Z,4
2018-07-20T02:50:18.836Z,4
2018-07-20T02:50:45.001Z,4
2018-07-20T02:51:11.141Z,0
2018-07-20T02:51:37.330Z,0
2018-07-20T02:52:03.458Z,0
2018-07-20T02:52:29.594Z,0
2018-07-20T02:52:55.738Z,4
2018-07-20T02:53:21.899Z,4
2018-07-20T02:53:48.037Z,4
2018-07-20T02:54:14.176Z,4
2018-07-20T02:54:40.338Z,4
2018-07-20T02:55:06.532Z,4
2018-07-20T02:55:32.716Z,0
2018-07-20T02:55:58.850Z,4
2018-07-20T02:56:25.013Z,4
2018-07-20T02:56:51.148Z,4
2018-07-20T02:57:17.299Z,4
2018-07-20T02:57:43.452Z,4
2018-07-20T02:58:09.620Z,8
2018-07-20T02:58:35.774Z,4
2018-07-20T02:59:01.918Z,4
2018-07-20T02:59:28.078Z,8
2018-07-20T02:59:54.252Z,8
2018-07-20T03:00:20.415Z,4
2018-07-20T03:00:46.548Z,8
2018-07-20T03:01:12.724Z,8
2018-07-20T03:01:38.862Z,8
2018-07-20T03:02:05.047Z,8
2018-07-20T03:02:31.261Z,12
2018-07-20T03:02:57.398Z,8
2018-07-20T03:03:23.556Z,12
2018-07-20T03:03:49.694Z,8
2018-07-20T03:04:15.875Z,12
2018-07-20T03:04:42.113Z,12
2018-07-20T03:05:08.419Z,12
2018-07-20T03:05:34.684Z,12
2018-07-20T03:06:01.026Z,16
2018-07-20T03:06:27.383Z,16
2018-07-20T03:06:53.658Z,16
2018-07-20T03:07:19.943Z,20
2018-07-20T03:07:46.085Z,20
2018-07-20T03:08:12.225Z,20
2018-07-20T03:08:38.365Z,20
2018-07-20T03:09:04.540Z,20
2018-07-20T03:09:30.687Z,24
2018-07-20T03:09:56.848Z,24
2018-07-20T03:10:22.988Z,28
2018-07-20T03:10:49.149Z,28
2018-07-20T03:11:15.357Z,28
2018-07-20T03:11:41.496Z,32
2018-07-20T03:12:07.658Z,32
2018-07-20T03:12:33.825Z,32
2018-07-20T03:12:59.959Z,36
2018-07-20T03:13:26.144Z,40
2018-07-20T03:13:52.282Z,40
2018-07-20T03:14:18.439Z,40
2018-07-20T03:14:44.601Z,48
2018-07-20T03:15:10.750Z,48
2018-07-20T03:15:36.889Z,48
2018-07-20T03:16:03.027Z,52
2018-07-20T03:16:29.164Z,52
2018-07-20T03:16:55.303Z,56
2018-07-20T03:17:21.440Z,60
2018-07-20T03:17:47.606Z,64
2018-07-20T03:18:13.774Z,68
2018-07-20T03:18:39.925Z,72
2018-07-20T03:19:06.064Z,76
2018-07-20T03:19:32.247Z,76
2018-07-20T03:19:58.412Z,84
2018-07-20T03:20:24.604Z,84
2018-07-20T03:20:50.747Z,92
2018-07-20T03:21:16.917Z,96
2018-07-20T03:21:43.099Z,100
2018-07-20T03:22:09.254Z,104
2018-07-20T03:22:35.390Z,112
2018-07-20T03:23:01.533Z,112
2018-07-20T03:23:27.692Z,120
2018-07-20T03:23:53.837Z,124
2018-07-20T03:24:19.976Z,128
2018-07-20T03:24:46.162Z,132
2018-07-20T03:25:12.317Z,140
2018-07-20T03:25:38.486Z,144
2018-07-20T03:26:04.628Z,148
2018-07-20T03:26:30.787Z,152
2018-07-20T03:26:56.948Z,160
2018-07-20T03:27:23.090Z,168
2018-07-20T03:27:49.237Z,172
2018-07-20T03:28:15.403Z,184
2018-07-20T03:28:41.537Z,192
2018-07-20T03:29:07.667Z,200
2018-07-20T03:29:33.809Z,208
2018-07-20T03:29:59.948Z,212
2018-07-20T03:30:26.113Z,220
2018-07-20T03:30:52.264Z,224
2018-07-20T03:31:18.424Z,232
2018-07-20T03:31:44.581Z,240
2018-07-20T03:32:10.754Z,244
2018-07-20T03:32:36.935Z,252
2018-07-20T03:33:03.045Z,264
2018-07-20T03:33:29.204Z,268
2018-07-20T03:33:55.345Z,276
2018-07-20T03:34:21.477Z,284
2018-07-20T03:34:47.643Z,296
2018-07-20T03:35:13.781Z,304
2018-07-20T03:35:39.941Z,312
2018-07-20T03:36:06.084Z,324
2018-07-20T03:36:32.218Z,328
2018-07-20T03:36:58.366Z,340
2018-07-20T03:37:24.497Z,348
2018-07-20T03:37:50.642Z,360
2018-07-20T03:38:16.777Z,372
2018-07-20T03:38:42.921Z,384
2018-07-20T03:39:09.063Z,396
2018-07-20T03:39:35.206Z,404
2018-07-20T03:40:01.339Z,420
2018-07-20T03:40:27.502Z,432
2018-07-20T03:40:53.632Z,448
2018-07-20T03:41:19.773Z,460
2018-07-20T03:41:45.937Z,472
2018-07-20T03:42:12.075Z,488
2018-07-20T03:42:38.218Z,504
2018-07-20T03:43:04.360Z,520
2018-07-20T03:43:30.502Z,528
2018-07-20T03:43:56.671Z,544
2018-07-20T03:44:22.822Z,556
2018-07-20T03:44:49.013Z,568
2018-07-20T03:45:15.155Z,576
2018-07-20T03:45:41.300Z,588
2018-07-20T03:46:07.437Z,596
2018-07-20T03:46:33.576Z,604
2018-07-20T03:46:59.714Z,612
2018-07-20T03:47:25.857Z,620
2018-07-20T03:47:51.998Z,632
2018-07-20T03:48:18.141Z,640
2018-07-20T03:48:44.282Z,648
2018-07-20T03:49:10.463Z,660
2018-07-20T03:49:36.621Z,672
2018-07-20T03:50:02.753Z,684
2018-07-20T03:50:28.898Z,696
2018-07-20T03:50:55.059Z,712
2018-07-20T03:51:21.226Z,728
2018-07-20T03:51:47.380Z,744
2018-07-20T03:52:13.599Z,764
2018-07-20T03:52:39.674Z,780
2018-07-20T03:53:05.813Z,796
2018-07-20T03:53:31.952Z,816
2018-07-20T03:53:58.083Z,836
2018-07-20T03:54:24.251Z,852
2018-07-20T03:54:50.397Z,872
2018-07-20T03:55:16.528Z,896
2018-07-20T03:55:42.665Z,912
2018-07-20T03:56:08.825Z,932
2018-07-20T03:56:34.990Z,952
2018-07-20T03:57:01.131Z,972
2018-07-20T03:57:27.319Z,996
2018-07-20T03:57:53.452Z,1016
2018-07-20T03:58:19.587Z,1040
2018-07-20T03:58:45.726Z,1060
2018-07-20T03:59:11.881Z,1080
2018-07-20T03:59:38.024Z,1100
2018-07-20T04:00:04.188Z,1120
2018-07-20T04:00:30.330Z,1140
2018-07-20T04:00:56.469Z,1160
2018-07-20T04:01:22.612Z,1180
2018-07-20T04:01:48.748Z,1200
2018-07-20T04:02:14.883Z,1220
2018-07-20T04:02:41.043Z,1240
2018-07-20T04:03:07.182Z,1260
2018-07-20T04:03:33.320Z,1284
2018-07-20T04:03:59.462Z,1308
2018-07-20T04:04:25.597Z,1336
2018-07-20T04:04:51.745Z,1360
2018-07-20T04:05:17.878Z,1384
2018-07-20T04:05:44.022Z,1412
2018-07-20T04:06:10.153Z,1432
2018-07-20T04:06:36.288Z,1448
2018-07-20T04:07:02.427Z,1460
2018-07-20T04:07:28.562Z,1464
2018-07-20T04:07:54.706Z,1468
2018-07-20T04:08:20.874Z,1472
2018-07-20T04:08:47.029Z,1480
2018-07-20T04:09:13.162Z,1488
2018-07-20T04:09:39.301Z,1496
2018-07-20T04:10:05.442Z,1504
2018-07-20T04:10:31.613Z,1516
2018-07-20T04:10:57.742Z,1532
2018-07-20T04:11:23.879Z,1544
2018-07-20T04:11:50.039Z,1552
2018-07-20T04:12:16.179Z,1564
2018-07-20T04:12:42.321Z,1572
2018-07-20T04:13:08.473Z,1584
2018-07-20T04:13:34.614Z,1588
2018-07-20T04:14:00.751Z,1596
2018-07-20T04:14:26.905Z,1608
2018-07-20T04:14:53.045Z,1620
2018-07-20T04:15:19.205Z,1632
2018-07-20T04:15:45.343Z,1652
2018-07-20T04:16:11.475Z,1668
2018-07-20T04:16:37.616Z,1692
2018-07-20T04:17:03.755Z,1716
2018-07-20T04:17:29.918Z,1744
2018-07-20T04:17:56.059Z,1784
2018-07-20T04:18:22.196Z,1820
2018-07-20T04:18:48.340Z,1868
2018-07-20T04:19:14.483Z,1912
2018-07-20T04:19:40.619Z,1960
2018-07-20T04:20:06.760Z,2016
2018-07-20T04:20:32.922Z,2076
2018-07-20T04:20:59.090Z,2136
2018-07-20T04:21:25.232Z,2192
2018-07-20T04:21:51.365Z,2256
2018-07-20T04:22:17.511Z,2312
2018-07-20T04:22:43.646Z,2368
2018-07-20T04:23:09.780Z,2412
2018-07-20T04:23:35.915Z,2452
2018-07-20T04:24:02.059Z,2480
2018-07-20T04:24:28.201Z,2504
2018-07-20T04:24:54.337Z,2520
2018-07-20T04:25:20.479Z,2524
2018-07-20T04:25:46.618Z,2532
2018-07-20T04:26:12.757Z,2544
2018-07-20T04:26:38.900Z,2556
2018-07-20T04:27:05.027Z,2576
2018-07-20T04:27:31.183Z,2604
2018-07-20T04:27:57.304Z,2632
2018-07-20T04:28:23.441Z,2668
2018-07-20T04:28:49.577Z,2704
2018-07-20T04:29:15.715Z,2740
2018-07-20T04:29:41.848Z,2784
2018-07-20T04:30:07.991Z,2824
2018-07-20T04:30:34.132Z,2864
2018-07-20T04:31:00.275Z,2900
2018-07-20T04:31:26.438Z,2928
2018-07-20T04:31:52.574Z,2964
2018-07-20T04:32:18.714Z,2996
2018-07-20T04:32:44.853Z,3032
2018-07-20T04:33:10.993Z,3060
2018-07-20T04:33:37.130Z,3080
2018-07-20T04:34:03.285Z,3104
2018-07-20T04:34:29.453Z,3128
2018-07-20T04:34:55.595Z,3152
2018-07-20T04:35:21.750Z,3184
2018-07-20T04:35:47.884Z,3216
2018-07-20T04:36:14.022Z,3240
2018-07-20T04:36:40.168Z,3264
2018-07-20T04:37:06.300Z,3292
2018-07-20T04:37:32.442Z,3328
2018-07-20T04:37:58.608Z,3360
2018-07-20T04:38:24.752Z,3396
2018-07-20T04:38:50.906Z,3432
2018-07-20T04:39:17.054Z,3476
2018-07-20T04:39:43.216Z,3516
2018-07-20T04:40:09.360Z,3556
2018-07-20T04:40:35.519Z,3596
2018-07-20T04:41:01.661Z,3636
2018-07-20T04:41:27.804Z,3676
2018-07-20T04:41:53.941Z,3724
2018-07-20T04:42:20.111Z,3776
2018-07-20T04:42:46.240Z,3840
2018-07-20T04:43:12.376Z,3908
2018-07-20T04:43:38.518Z,3984
2018-07-20T04:44:04.652Z,4064
2018-07-20T04:44:30.786Z,4140
2018-07-20T04:44:56.928Z,4220
2018-07-20T04:45:23.091Z,4300
2018-07-20T04:45:49.256Z,4376
2018-07-20T04:46:15.392Z,4460
2018-07-20T04:46:41.528Z,4528
2018-07-20T04:47:07.674Z,4592
2018-07-20T04:47:33.796Z,4656
2018-07-20T04:47:59.940Z,4716
2018-07-20T04:48:26.080Z,4768
2018-07-20T04:48:52.242Z,4824
2018-07-20T04:49:18.374Z,4868
2018-07-20T04:49:44.518Z,4920
2018-07-20T04:50:10.656Z,4980
2018-07-20T04:50:36.796Z,5048
2018-07-20T04:51:02.926Z,5112
2018-07-20T04:51:29.092Z,5188
2018-07-20T04:51:55.239Z,5272
2018-07-20T04:52:21.374Z,5372
2018-07-20T04:52:47.561Z,5488
2018-07-20T04:53:13.743Z,5616
2018-07-20T04:53:39.887Z,5720
2018-07-20T04:54:06.045Z,5792
2018-07-20T04:54:32.186Z,5860
2018-07-20T04:54:58.345Z,5928
2018-07-20T04:55:24.502Z,6008
2018-07-20T04:55:50.640Z,6072
2018-07-20T04:56:16.779Z,6132
2018-07-20T04:56:42.919Z,6204
2018-07-20T04:57:09.060Z,6240
2018-07-20T04:57:35.201Z,6252
2018-07-20T04:58:01.364Z,6268
2018-07-20T04:58:27.499Z,6316
2018-07-20T04:58:53.666Z,6400
2018-07-20T04:59:19.779Z,6448
2018-07-20T04:59:45.934Z,6456
2018-07-20T05:00:12.124Z,6464
2018-07-20T05:00:38.261Z,6500
2018-07-20T05:01:04.399Z,6572
2018-07-20T05:01:30.544Z,6644
2018-07-20T05:01:56.683Z,6700
2018-07-20T05:02:22.820Z,6756
2018-07-20T05:02:48.986Z,6804
2018-07-20T05:03:15.148Z,6852
2018-07-20T05:03:41.334Z,6904
2018-07-20T05:04:07.444Z,6940
2018-07-20T05:04:33.582Z,6928
2018-07-20T05:04:59.739Z,6928
2018-07-20T05:05:25.903Z,6976
2018-07-20T05:05:52.117Z,7024
2018-07-20T05:06:18.170Z,7056
2018-07-20T05:06:44.334Z,7100
2018-07-20T05:07:10.477Z,7152
2018-07-20T05:07:36.664Z,7232
2018-07-20T05:08:02.825Z,7288
2018-07-20T05:08:28.970Z,7328
2018-07-20T05:08:55.108Z,7352
2018-07-20T05:09:21.248Z,7344
2018-07-20T05:09:47.389Z,7336
2018-07-20T05:10:13.525Z,7344
2018-07-20T05:10:39.664Z,7348
2018-07-20T05:11:05.801Z,7376
2018-07-20T05:11:32.023Z,7396
2018-07-20T05:11:58.080Z,7396
2018-07-20T05:12:24.216Z,7404
2018-07-20T05:12:50.361Z,7440
2018-07-20T05:13:16.497Z,7480
2018-07-20T05:13:42.642Z,7544
2018-07-20T05:14:08.786Z,7612
2018-07-20T05:14:34.946Z,7688
2018-07-20T05:15:01.095Z,7756
2018-07-20T05:15:27.235Z,7816
2018-07-20T05:15:53.369Z,7856
2018-07-20T05:16:19.548Z,7900
2018-07-20T05:16:45.686Z,7936
2018-07-20T05:17:11.853Z,7952
2018-07-20T05:17:37.995Z,7976
2018-07-20T05:18:04.140Z,7984
2018-07-20T05:18:30.281Z,7944
2018-07-20T05:18:56.421Z,7904
2018-07-20T05:19:22.581Z,7856
2018-07-20T05:19:48.731Z,7812
2018-07-20T05:20:14.871Z,7760
2018-07-20T05:20:41.042Z,7716
2018-07-20T05:21:07.181Z,7692
2018-07-20T05:21:33.319Z,7672
2018-07-20T05:21:59.459Z,7680
2018-07-20T05:22:25.602Z,7708
2018-07-20T05:22:51.738Z,7756
2018-07-20T05:23:17.870Z,7820
2018-07-20T05:23:44.008Z,7900
2018-07-20T05:24:10.237Z,7992
2018-07-20T05:24:36.358Z,8092
2018-07-20T05:25:02.500Z,8196
2018-07-20T05:25:28.639Z,8312
2018-07-20T05:25:54.779Z,8396
2018-07-20T05:26:20.941Z,8528
2018-07-20T05:26:47.091Z,8668
2018-07-20T05:27:13.222Z,8816
2018-07-20T05:27:39.364Z,8964
2018-07-20T05:28:05.505Z,9096
2018-07-20T05:28:31.650Z,9232
2018-07-20T05:28:58.105Z,9360
2018-07-20T05:29:24.233Z,9476
2018-07-20T05:29:50.375Z,9588
2018-07-20T05:30:16.538Z,9696
2018-07-20T05:30:42.673Z,9812
2018-07-20T05:31:08.837Z,9944
2018-07-20T05:31:34.979Z,9988
2018-07-20T05:32:01.141Z,10100
2018-07-20T05:32:27.287Z,10172
2018-07-20T05:32:53.459Z,10220
2018-07-20T05:33:19.619Z,10220
2018-07-20T05:33:45.767Z,10308
2018-07-20T05:34:11.898Z,10472
2018-07-20T05:34:38.036Z,10584
2018-07-20T05:35:04.211Z,10616
2018-07-20T05:35:30.344Z,10692
2018-07-20T05:35:56.477Z,10776
2018-07-20T05:36:22.618Z,10860
2018-07-20T05:36:48.768Z,10928
2018-07-20T05:37:14.953Z,11012
2018-07-20T05:37:41.090Z,11076
2018-07-20T05:38:07.271Z,11192
2018-07-20T05:38:33.390Z,11256
2018-07-20T05:38:59.532Z,11280
2018-07-20T05:39:25.692Z,11340
2018-07-20T05:39:51.836Z,11416
2018-07-20T05:40:17.973Z,11508
2018-07-20T05:40:44.106Z,11652
2018-07-20T05:41:10.248Z,11692
2018-07-20T05:41:36.386Z,11756
2018-07-20T05:42:02.528Z,11868
2018-07-20T05:42:28.701Z,12020
2018-07-20T05:42:54.842Z,12208
2018-07-20T05:43:21.002Z,12288
2018-07-20T05:43:47.156Z,12440
2018-07-20T05:44:13.294Z,12556
2018-07-20T05:44:39.461Z,12676
2018-07-20T05:45:05.616Z,12792
2018-07-20T05:45:31.744Z,12892
2018-07-20T05:45:57.886Z,12996
2018-07-20T05:46:24.031Z,13088
2018-07-20T05:46:50.173Z,13156
2018-07-20T05:47:16.313Z,13252
2018-07-20T05:47:42.463Z,13340
2018-07-20T05:48:08.608Z,13404
2018-07-20T05:48:34.771Z,13476
2018-07-20T05:49:00.911Z,13548
2018-07-20T05:49:27.080Z,13616
2018-07-20T05:49:53.221Z,13680
2018-07-20T05:50:19.357Z,13752
2018-07-20T05:50:45.498Z,13824
2018-07-20T05:51:11.643Z,13888
2018-07-20T05:51:37.780Z,13956
2018-07-20T05:52:03.915Z,14028
2018-07-20T05:52:30.050Z,14096
2018-07-20T05:52:56.189Z,14152
2018-07-20T05:53:22.368Z,14204
2018-07-20T05:53:48.508Z,14228
2018-07-20T05:54:14.642Z,14248
2018-07-20T05:54:40.802Z,14312
2018-07-20T05:55:06.947Z,14372
2018-07-20T05:55:33.102Z,14440
2018-07-20T05:55:59.245Z,14516
2018-07-20T05:56:25.401Z,14592
2018-07-20T05:56:51.561Z,14676
2018-07-20T05:57:17.705Z,14776
2018-07-20T05:57:43.836Z,14880
2018-07-20T05:58:10.004Z,14980
2018-07-20T05:58:36.147Z,15096
2018-07-20T05:59:02.312Z,15208
2018-07-20T05:59:28.449Z,15320
2018-07-20T05:59:54.588Z,15440
2018-07-20T06:00:20.729Z,15560
2018-07-20T06:00:46.884Z,15684
2018-07-20T06:01:13.022Z,16044
2018-07-20T06:01:39.160Z,16164
2018-07-20T06:02:05.301Z,16284
2018-07-20T06:02:31.438Z,16408
2018-07-20T06:02:57.582Z,16544
2018-07-20T06:03:23.723Z,16668
2018-07-20T06:03:49.864Z,16768
2018-07-20T06:04:16.021Z,16856
2018-07-20T06:04:42.164Z,16940
2018-07-20T06:05:08.319Z,16988
2018-07-20T06:05:34.512Z,17024
2018-07-20T06:06:00.606Z,17040
2018-07-20T06:06:26.744Z,17048
2018-07-20T06:06:52.906Z,17044
2018-07-20T06:07:19.038Z,17028
2018-07-20T06:07:45.177Z,17048
2018-07-20T06:08:11.338Z,17060
2018-07-20T06:08:37.477Z,17080
2018-07-20T06:09:03.614Z,17100